sensor_id;sensor_type;location;lat;lon;timestamp;temperature;humidity
66013;DHT22;52783;50.502;8.190;2022-10-29T00:01:44;14.80;99.90
66013;DHT22;52783;50.502;8.190;2022-10-29T00:04:09;14.70;99.90
66013;DHT22;52783;50.502;8.190;2022-10-29T00:06:35;14.70;99.90
66013;DHT22;52783;50.502;8.190;2022-10-29T00:09:02;14.60;99.90
66013;DHT22;52783;50.502;8.190;2022-10-29T00:11:27;14.60;99.90
66013;DHT22;52783;50.502;8.190;2022-10-29T00:13:56;14.60;99.90
66013;DHT22;52783;50.502;8.190;2022-10-29T00:16:24;14.60;99.90
66013;DHT22;52783;50.502;8.190;2022-10-29T00:18:50;14.60;99.90
66013;DHT22;52783;50.502;8.190;2022-10-29T00:21:17;14.50;99.90
66013;DHT22;52783;50.502;8.190;2022-10-29T00:23:43;14.50;99.90
66013;DHT22;52783;50.502;8.190;2022-10-29T00:26:09;14.50;99.90
66013;DHT22;52783;50.502;8.190;2022-10-29T00:28:35;14.50;99.90
66013;DHT22;52783;50.502;8.190;2022-10-29T00:31:05;14.50;99.90
66013;DHT22;52783;50.502;8.190;2022-10-29T00:33:31;14.50;99.90
66013;DHT22;52783;50.502;8.190;2022-10-29T00:36:17;14.50;99.90
66013;DHT22;52783;50.502;8.190;2022-10-29T00:38:46;14.50;99.90
66013;DHT22;52783;50.502;8.190;2022-10-29T00:41:16;14.50;99.90
66013;DHT22;52783;50.502;8.190;2022-10-29T00:46:58;14.50;99.90
66013;DHT22;52783;50.502;8.190;2022-10-29T00:49:27;14.40;99.90
66013;DHT22;52783;50.502;8.190;2022-10-29T00:51:52;14.40;99.90
66013;DHT22;52783;50.502;8.190;2022-10-29T00:54:18;14.40;99.90
66013;DHT22;52783;50.502;8.190;2022-10-29T00:56:57;14.50;99.90
66013;DHT22;52783;50.502;8.190;2022-10-29T00:59:24;14.50;99.90
66013;DHT22;52783;50.502;8.190;2022-10-29T01:01:49;14.40;99.90
66013;DHT22;52783;50.502;8.190;2022-10-29T01:04:16;14.40;99.90
66013;DHT22;52783;50.502;8.190;2022-10-29T01:06:42;14.40;99.90
66013;DHT22;52783;50.502;8.190;2022-10-29T01:09:08;14.40;99.90
66013;DHT22;52783;50.502;8.190;2022-10-29T01:11:47;14.30;99.90
66013;DHT22;52783;50.502;8.190;2022-10-29T01:22:49;14.20;99.90
66013;DHT22;52783;50.502;8.190;2022-10-29T01:28:47;14.10;99.90
66013;DHT22;52783;50.502;8.190;2022-10-29T01:31:30;14.00;99.90
66013;DHT22;52783;50.502;8.190;2022-10-29T01:36:51;14.00;99.90
66013;DHT22;52783;50.502;8.190;2022-10-29T01:39:27;14.00;99.90
66013;DHT22;52783;50.502;8.190;2022-10-29T01:44:36;14.00;99.90
66013;DHT22;52783;50.502;8.190;2022-10-29T01:47:04;14.00;99.90
66013;DHT22;52783;50.502;8.190;2022-10-29T01:49:42;14.00;99.90
66013;DHT22;52783;50.502;8.190;2022-10-29T01:52:11;14.00;99.90
66013;DHT22;52783;50.502;8.190;2022-10-29T01:54:41;14.00;99.90
66013;DHT22;52783;50.502;8.190;2022-10-29T02:00:13;14.00;99.90
66013;DHT22;52783;50.502;8.190;2022-10-29T02:08:30;13.90;99.90
66013;DHT22;52783;50.502;8.190;2022-10-29T02:11:24;13.90;99.90
66013;DHT22;52783;50.502;8.190;2022-10-29T02:14:20;13.90;99.90
66013;DHT22;52783;50.502;8.190;2022-10-29T02:16:49;13.90;99.90
66013;DHT22;52783;50.502;8.190;2022-10-29T02:19:15;13.90;99.90
66013;DHT22;52783;50.502;8.190;2022-10-29T02:21:40;13.90;99.90
66013;DHT22;52783;50.502;8.190;2022-10-29T02:24:08;13.90;99.90
66013;DHT22;52783;50.502;8.190;2022-10-29T02:26:34;13.90;99.90
66013;DHT22;52783;50.502;8.190;2022-10-29T02:28:59;13.90;99.90
66013;DHT22;52783;50.502;8.190;2022-10-29T02:31:26;13.80;99.90
66013;DHT22;52783;50.502;8.190;2022-10-29T02:33:52;13.90;99.90
66013;DHT22;52783;50.502;8.190;2022-10-29T02:36:17;13.90;99.90
66013;DHT22;52783;50.502;8.190;2022-10-29T02:38:43;13.90;99.90
66013;DHT22;52783;50.502;8.190;2022-10-29T02:41:08;13.90;99.90
66013;DHT22;52783;50.502;8.190;2022-10-29T02:43:34;13.90;99.90
66013;DHT22;52783;50.502;8.190;2022-10-29T02:46:17;13.90;99.90
66013;DHT22;52783;50.502;8.190;2022-10-29T02:48:42;13.90;99.90
66013;DHT22;52783;50.502;8.190;2022-10-29T02:51:09;13.90;99.90
66013;DHT22;52783;50.502;8.190;2022-10-29T02:53:34;13.80;99.90
66013;DHT22;52783;50.502;8.190;2022-10-29T02:56:00;13.70;99.90
66013;DHT22;52783;50.502;8.190;2022-10-29T02:58:26;13.60;99.90
66013;DHT22;52783;50.502;8.190;2022-10-29T03:00:52;13.60;99.90
66013;DHT22;52783;50.502;8.190;2022-10-29T03:03:18;13.60;99.90
66013;DHT22;52783;50.502;8.190;2022-10-29T03:05:43;13.50;99.90
66013;DHT22;52783;50.502;8.190;2022-10-29T03:08:09;13.40;99.90
66013;DHT22;52783;50.502;8.190;2022-10-29T03:10:34;13.40;99.90
66013;DHT22;52783;50.502;8.190;2022-10-29T03:13:00;13.30;99.90
66013;DHT22;52783;50.502;8.190;2022-10-29T03:15:26;13.30;99.90
66013;DHT22;52783;50.502;8.190;2022-10-29T03:17:52;13.40;99.90
66013;DHT22;52783;50.502;8.190;2022-10-29T03:20:17;13.40;99.90
66013;DHT22;52783;50.502;8.190;2022-10-29T03:22:43;13.30;99.90
66013;DHT22;52783;50.502;8.190;2022-10-29T03:25:09;13.20;99.90
66013;DHT22;52783;50.502;8.190;2022-10-29T03:27:42;13.20;99.90
66013;DHT22;52783;50.502;8.190;2022-10-29T03:30:09;13.20;99.90
66013;DHT22;52783;50.502;8.190;2022-10-29T03:32:39;13.20;99.90
66013;DHT22;52783;50.502;8.190;2022-10-29T03:35:06;13.20;99.90
66013;DHT22;52783;50.502;8.190;2022-10-29T03:37:32;13.20;99.90
66013;DHT22;52783;50.502;8.190;2022-10-29T03:39:57;13.20;99.90
66013;DHT22;52783;50.502;8.190;2022-10-29T03:42:23;13.10;99.90
66013;DHT22;52783;50.502;8.190;2022-10-29T03:44:48;13.10;99.90
66013;DHT22;52783;50.502;8.190;2022-10-29T03:47:14;13.00;99.90
66013;DHT22;52783;50.502;8.190;2022-10-29T03:49:39;12.90;99.90
66013;DHT22;52783;50.502;8.190;2022-10-29T03:52:05;12.80;99.90
66013;DHT22;52783;50.502;8.190;2022-10-29T03:54:30;12.80;99.90
66013;DHT22;52783;50.502;8.190;2022-10-29T03:56:56;12.80;99.90
66013;DHT22;52783;50.502;8.190;2022-10-29T03:59:21;12.90;99.90
66013;DHT22;52783;50.502;8.190;2022-10-29T04:01:47;12.90;99.90
66013;DHT22;52783;50.502;8.190;2022-10-29T04:04:12;12.90;99.90
66013;DHT22;52783;50.502;8.190;2022-10-29T04:06:38;12.90;99.90
66013;DHT22;52783;50.502;8.190;2022-10-29T04:09:03;12.90;99.90
66013;DHT22;52783;50.502;8.190;2022-10-29T04:11:29;12.90;99.90
66013;DHT22;52783;50.502;8.190;2022-10-29T04:13:54;12.80;99.90
66013;DHT22;52783;50.502;8.190;2022-10-29T04:16:20;12.80;99.90
66013;DHT22;52783;50.502;8.190;2022-10-29T04:18:47;12.90;99.90
66013;DHT22;52783;50.502;8.190;2022-10-29T04:21:12;12.90;99.90
66013;DHT22;52783;50.502;8.190;2022-10-29T04:23:38;12.90;99.90
66013;DHT22;52783;50.502;8.190;2022-10-29T04:26:04;12.90;99.90
66013;DHT22;52783;50.502;8.190;2022-10-29T04:28:29;12.80;99.90
66013;DHT22;52783;50.502;8.190;2022-10-29T04:30:55;12.90;99.90
66013;DHT22;52783;50.502;8.190;2022-10-29T04:33:20;12.90;99.90
66013;DHT22;52783;50.502;8.190;2022-10-29T04:35:53;12.90;99.90
66013;DHT22;52783;50.502;8.190;2022-10-29T04:38:19;12.90;99.90
66013;DHT22;52783;50.502;8.190;2022-10-29T04:40:44;13.00;99.90
66013;DHT22;52783;50.502;8.190;2022-10-29T04:43:10;13.00;99.90
66013;DHT22;52783;50.502;8.190;2022-10-29T04:45:35;13.10;99.90
66013;DHT22;52783;50.502;8.190;2022-10-29T04:48:02;13.00;99.90
66013;DHT22;52783;50.502;8.190;2022-10-29T04:50:29;13.10;99.90
66013;DHT22;52783;50.502;8.190;2022-10-29T04:52:59;13.10;99.90
66013;DHT22;52783;50.502;8.190;2022-10-29T04:55:25;13.10;99.90
66013;DHT22;52783;50.502;8.190;2022-10-29T04:57:51;13.10;99.90
66013;DHT22;52783;50.502;8.190;2022-10-29T05:00:16;13.10;99.90
66013;DHT22;52783;50.502;8.190;2022-10-29T05:02:46;13.20;99.90
66013;DHT22;52783;50.502;8.190;2022-10-29T05:05:13;13.20;99.90
66013;DHT22;52783;50.502;8.190;2022-10-29T05:07:38;13.10;99.90
66013;DHT22;52783;50.502;8.190;2022-10-29T05:10:04;13.10;99.90
66013;DHT22;52783;50.502;8.190;2022-10-29T05:12:29;13.10;99.90
66013;DHT22;52783;50.502;8.190;2022-10-29T05:14:55;13.20;99.90
66013;DHT22;52783;50.502;8.190;2022-10-29T05:17:20;13.30;99.90
66013;DHT22;52783;50.502;8.190;2022-10-29T05:19:46;13.20;99.90
66013;DHT22;52783;50.502;8.190;2022-10-29T05:22:11;13.30;99.90
66013;DHT22;52783;50.502;8.190;2022-10-29T05:24:37;13.30;99.90
66013;DHT22;52783;50.502;8.190;2022-10-29T05:27:04;13.30;99.90
66013;DHT22;52783;50.502;8.190;2022-10-29T05:29:30;13.40;99.90
66013;DHT22;52783;50.502;8.190;2022-10-29T05:31:56;13.40;99.90
66013;DHT22;52783;50.502;8.190;2022-10-29T05:34:21;13.40;99.90
66013;DHT22;52783;50.502;8.190;2022-10-29T05:36:47;13.40;99.90
66013;DHT22;52783;50.502;8.190;2022-10-29T05:39:13;13.40;99.90
66013;DHT22;52783;50.502;8.190;2022-10-29T05:41:38;13.40;99.90
66013;DHT22;52783;50.502;8.190;2022-10-29T05:44:04;13.40;99.90
66013;DHT22;52783;50.502;8.190;2022-10-29T05:46:29;13.40;99.90
66013;DHT22;52783;50.502;8.190;2022-10-29T05:48:55;13.50;99.90
66013;DHT22;52783;50.502;8.190;2022-10-29T05:51:20;13.50;99.90
66013;DHT22;52783;50.502;8.190;2022-10-29T05:53:46;13.60;99.90
66013;DHT22;52783;50.502;8.190;2022-10-29T05:56:12;13.60;99.90
66013;DHT22;52783;50.502;8.190;2022-10-29T05:58:37;13.60;99.90
66013;DHT22;52783;50.502;8.190;2022-10-29T06:01:07;13.70;99.90
66013;DHT22;52783;50.502;8.190;2022-10-29T06:03:33;13.80;99.90
66013;DHT22;52783;50.502;8.190;2022-10-29T06:05:59;13.80;99.90
66013;DHT22;52783;50.502;8.190;2022-10-29T06:08:24;13.90;99.90
66013;DHT22;52783;50.502;8.190;2022-10-29T06:10:50;13.90;99.90
66013;DHT22;52783;50.502;8.190;2022-10-29T06:13:18;13.90;99.90
66013;DHT22;52783;50.502;8.190;2022-10-29T06:15:45;13.90;99.90
66013;DHT22;52783;50.502;8.190;2022-10-29T06:18:11;13.90;99.90
66013;DHT22;52783;50.502;8.190;2022-10-29T06:20:37;13.90;99.90
66013;DHT22;52783;50.502;8.190;2022-10-29T06:23:03;13.90;99.90
66013;DHT22;52783;50.502;8.190;2022-10-29T06:25:29;13.80;99.90
66013;DHT22;52783;50.502;8.190;2022-10-29T06:28:08;13.80;99.90
66013;DHT22;52783;50.502;8.190;2022-10-29T06:30:35;13.80;99.90
66013;DHT22;52783;50.502;8.190;2022-10-29T06:33:01;13.80;99.90
66013;DHT22;52783;50.502;8.190;2022-10-29T06:35:27;13.90;99.90
66013;DHT22;52783;50.502;8.190;2022-10-29T06:37:53;13.80;99.90
66013;DHT22;52783;50.502;8.190;2022-10-29T06:40:18;13.80;99.90
66013;DHT22;52783;50.502;8.190;2022-10-29T06:42:44;13.70;99.90
66013;DHT22;52783;50.502;8.190;2022-10-29T06:45:09;13.70;99.90
66013;DHT22;52783;50.502;8.190;2022-10-29T06:47:39;13.60;99.90
66013;DHT22;52783;50.502;8.190;2022-10-29T06:50:06;13.70;99.90
66013;DHT22;52783;50.502;8.190;2022-10-29T06:52:31;13.70;99.90
66013;DHT22;52783;50.502;8.190;2022-10-29T06:54:57;13.70;99.90
66013;DHT22;52783;50.502;8.190;2022-10-29T06:57:23;13.80;99.90
66013;DHT22;52783;50.502;8.190;2022-10-29T06:59:49;13.80;99.90
66013;DHT22;52783;50.502;8.190;2022-10-29T07:02:15;13.90;99.90
66013;DHT22;52783;50.502;8.190;2022-10-29T07:04:43;13.90;99.90
66013;DHT22;52783;50.502;8.190;2022-10-29T07:07:08;13.90;99.90
66013;DHT22;52783;50.502;8.190;2022-10-29T07:09:34;13.90;99.90
66013;DHT22;52783;50.502;8.190;2022-10-29T07:12:00;13.90;99.90
66013;DHT22;52783;50.502;8.190;2022-10-29T07:14:25;13.90;99.90
66013;DHT22;52783;50.502;8.190;2022-10-29T07:16:52;13.90;99.90
66013;DHT22;52783;50.502;8.190;2022-10-29T07:19:17;13.90;99.90
66013;DHT22;52783;50.502;8.190;2022-10-29T07:21:43;13.90;99.90
66013;DHT22;52783;50.502;8.190;2022-10-29T07:24:09;14.00;99.90
66013;DHT22;52783;50.502;8.190;2022-10-29T07:26:35;14.00;99.90
66013;DHT22;52783;50.502;8.190;2022-10-29T07:29:00;13.90;99.90
66013;DHT22;52783;50.502;8.190;2022-10-29T07:31:27;13.90;99.90
66013;DHT22;52783;50.502;8.190;2022-10-29T07:33:53;13.90;99.90
66013;DHT22;52783;50.502;8.190;2022-10-29T07:36:18;13.90;99.90
66013;DHT22;52783;50.502;8.190;2022-10-29T07:38:44;14.00;99.90
66013;DHT22;52783;50.502;8.190;2022-10-29T07:41:09;14.20;99.90
66013;DHT22;52783;50.502;8.190;2022-10-29T07:43:35;14.30;99.90
66013;DHT22;52783;50.502;8.190;2022-10-29T07:46:00;14.40;99.90
66013;DHT22;52783;50.502;8.190;2022-10-29T07:48:26;14.50;99.90
66013;DHT22;52783;50.502;8.190;2022-10-29T07:50:51;14.60;99.90
66013;DHT22;52783;50.502;8.190;2022-10-29T07:53:17;14.60;99.90
66013;DHT22;52783;50.502;8.190;2022-10-29T07:55:43;14.60;99.90
66013;DHT22;52783;50.502;8.190;2022-10-29T07:58:11;14.70;99.90
66013;DHT22;52783;50.502;8.190;2022-10-29T08:00:38;14.80;99.90
66013;DHT22;52783;50.502;8.190;2022-10-29T08:03:04;14.80;99.90
66013;DHT22;52783;50.502;8.190;2022-10-29T08:05:30;14.90;99.90
66013;DHT22;52783;50.502;8.190;2022-10-29T08:07:56;14.90;99.90
66013;DHT22;52783;50.502;8.190;2022-10-29T08:10:22;15.00;99.90
66013;DHT22;52783;50.502;8.190;2022-10-29T08:12:53;15.10;99.90
66013;DHT22;52783;50.502;8.190;2022-10-29T08:15:19;15.20;99.90
66013;DHT22;52783;50.502;8.190;2022-10-29T08:17:45;15.30;99.90
66013;DHT22;52783;50.502;8.190;2022-10-29T08:20:11;15.40;99.90
66013;DHT22;52783;50.502;8.190;2022-10-29T08:22:37;15.30;99.90
66013;DHT22;52783;50.502;8.190;2022-10-29T08:25:03;15.20;99.90
66013;DHT22;52783;50.502;8.190;2022-10-29T08:27:28;15.10;99.90
66013;DHT22;52783;50.502;8.190;2022-10-29T08:29:54;15.10;99.90
66013;DHT22;52783;50.502;8.190;2022-10-29T08:32:19;15.10;99.90
66013;DHT22;52783;50.502;8.190;2022-10-29T08:34:45;15.10;99.90
66013;DHT22;52783;50.502;8.190;2022-10-29T08:37:10;15.10;99.90
66013;DHT22;52783;50.502;8.190;2022-10-29T08:39:36;15.10;99.90
66013;DHT22;52783;50.502;8.190;2022-10-29T08:42:57;15.20;99.90
66013;DHT22;52783;50.502;8.190;2022-10-29T08:45:16;15.40;99.90
66013;DHT22;52783;50.502;8.190;2022-10-29T08:50:41;15.50;99.90
66013;DHT22;52783;50.502;8.190;2022-10-29T08:53:15;15.60;99.90
66013;DHT22;52783;50.502;8.190;2022-10-29T08:55:42;15.60;99.90
66013;DHT22;52783;50.502;8.190;2022-10-29T08:58:18;15.80;99.90
66013;DHT22;52783;50.502;8.190;2022-10-29T09:00:47;15.80;99.90
66013;DHT22;52783;50.502;8.190;2022-10-29T09:03:13;15.90;99.90
66013;DHT22;52783;50.502;8.190;2022-10-29T09:05:56;16.00;99.90
66013;DHT22;52783;50.502;8.190;2022-10-29T09:16:47;16.60;99.90
66013;DHT22;52783;50.502;8.190;2022-10-29T09:27:19;17.30;99.90
66013;DHT22;52783;50.502;8.190;2022-10-29T09:30:02;17.30;99.90
66013;DHT22;52783;50.502;8.190;2022-10-29T09:33:00;17.40;99.90
66013;DHT22;52783;50.502;8.190;2022-10-29T09:35:37;17.50;99.90
66013;DHT22;52783;50.502;8.190;2022-10-29T09:41:00;17.70;99.90
66013;DHT22;52783;50.502;8.190;2022-10-29T09:43:58;17.70;99.90
66013;DHT22;52783;50.502;8.190;2022-10-29T09:49:32;17.80;99.90
66013;DHT22;52783;50.502;8.190;2022-10-29T09:52:14;17.80;99.90
66013;DHT22;52783;50.502;8.190;2022-10-29T09:54:40;18.00;99.90
66013;DHT22;52783;50.502;8.190;2022-10-29T09:57:15;18.10;99.90
66013;DHT22;52783;50.502;8.190;2022-10-29T09:59:55;18.20;99.90
66013;DHT22;52783;50.502;8.190;2022-10-29T10:02:39;18.10;99.90
66013;DHT22;52783;50.502;8.190;2022-10-29T10:07:39;18.30;99.90
66013;DHT22;52783;50.502;8.190;2022-10-29T10:10:07;18.50;99.90
66013;DHT22;52783;50.502;8.190;2022-10-29T10:12:45;18.60;99.90
66013;DHT22;52783;50.502;8.190;2022-10-29T10:15:32;18.70;99.90
66013;DHT22;52783;50.502;8.190;2022-10-29T10:18:04;18.80;99.90
66013;DHT22;52783;50.502;8.190;2022-10-29T10:20:37;18.90;99.90
66013;DHT22;52783;50.502;8.190;2022-10-29T10:23:24;18.70;99.90
66013;DHT22;52783;50.502;8.190;2022-10-29T10:25:52;18.60;99.80
66013;DHT22;52783;50.502;8.190;2022-10-29T10:28:23;18.60;99.90
66013;DHT22;52783;50.502;8.190;2022-10-29T10:31:15;18.50;99.90
66013;DHT22;52783;50.502;8.190;2022-10-29T10:33:49;18.30;99.90
66013;DHT22;52783;50.502;8.190;2022-10-29T10:36:16;18.20;99.90
66013;DHT22;52783;50.502;8.190;2022-10-29T10:38:45;18.30;99.90
66013;DHT22;52783;50.502;8.190;2022-10-29T10:41:12;18.40;99.90
66013;DHT22;52783;50.502;8.190;2022-10-29T10:43:45;18.30;99.90
66013;DHT22;52783;50.502;8.190;2022-10-29T10:46:18;18.20;99.90
66013;DHT22;52783;50.502;8.190;2022-10-29T10:49:06;18.40;99.90
66013;DHT22;52783;50.502;8.190;2022-10-29T10:51:41;18.50;99.90
66013;DHT22;52783;50.502;8.190;2022-10-29T10:54:32;18.30;99.90
66013;DHT22;52783;50.502;8.190;2022-10-29T11:05:16;18.10;99.90
66013;DHT22;52783;50.502;8.190;2022-10-29T11:08:06;18.30;99.90
66013;DHT22;52783;50.502;8.190;2022-10-29T11:10:55;18.60;99.90
66013;DHT22;52783;50.502;8.190;2022-10-29T11:13:26;18.80;99.90
66013;DHT22;52783;50.502;8.190;2022-10-29T11:16:15;19.00;99.90
66013;DHT22;52783;50.502;8.190;2022-10-29T11:18:44;19.00;99.30
66013;DHT22;52783;50.502;8.190;2022-10-29T11:27:00;19.20;98.30
66013;DHT22;52783;50.502;8.190;2022-10-29T11:29:47;19.30;98.10
66013;DHT22;52783;50.502;8.190;2022-10-29T11:32:19;19.30;97.00
66013;DHT22;52783;50.502;8.190;2022-10-29T11:35:03;19.50;96.80
66013;DHT22;52783;50.502;8.190;2022-10-29T11:40:15;19.70;95.20
66013;DHT22;52783;50.502;8.190;2022-10-29T11:42:42;19.90;94.30
66013;DHT22;52783;50.502;8.190;2022-10-29T11:45:12;19.70;93.80
66013;DHT22;52783;50.502;8.190;2022-10-29T11:48:12;19.90;93.90
66013;DHT22;52783;50.502;8.190;2022-10-29T11:51:03;20.10;93.10
66013;DHT22;52783;50.502;8.190;2022-10-29T11:53:47;20.10;92.70
66013;DHT22;52783;50.502;8.190;2022-10-29T11:56:32;20.00;94.60
66013;DHT22;52783;50.502;8.190;2022-10-29T12:01:53;20.00;95.20
66013;DHT22;52783;50.502;8.190;2022-10-29T12:04:34;20.10;96.00
66013;DHT22;52783;50.502;8.190;2022-10-29T12:07:30;20.00;94.60
66013;DHT22;52783;50.502;8.190;2022-10-29T12:12:55;20.10;95.10
66013;DHT22;52783;50.502;8.190;2022-10-29T12:15:36;20.10;95.00
66013;DHT22;52783;50.502;8.190;2022-10-29T12:20:49;20.10;94.90
66013;DHT22;52783;50.502;8.190;2022-10-29T12:26:36;20.20;94.50
66013;DHT22;52783;50.502;8.190;2022-10-29T12:34:49;20.20;93.00
66013;DHT22;52783;50.502;8.190;2022-10-29T12:37:32;20.20;93.90
66013;DHT22;52783;50.502;8.190;2022-10-29T12:40:17;20.30;94.00
66013;DHT22;52783;50.502;8.190;2022-10-29T12:42:45;20.30;93.70
66013;DHT22;52783;50.502;8.190;2022-10-29T12:45:29;20.20;94.20
66013;DHT22;52783;50.502;8.190;2022-10-29T12:48:33;20.40;93.80
66013;DHT22;52783;50.502;8.190;2022-10-29T12:53:48;20.50;92.30
66013;DHT22;52783;50.502;8.190;2022-10-29T12:56:18;20.50;92.50
66013;DHT22;52783;50.502;8.190;2022-10-29T12:58:51;20.20;93.00
66013;DHT22;52783;50.502;8.190;2022-10-29T13:09:35;20.30;94.90
66013;DHT22;52783;50.502;8.190;2022-10-29T13:12:07;20.30;93.80
66013;DHT22;52783;50.502;8.190;2022-10-29T13:14:38;20.30;93.20
66013;DHT22;52783;50.502;8.190;2022-10-29T13:17:17;20.40;92.20
66013;DHT22;52783;50.502;8.190;2022-10-29T13:19:49;20.60;92.30
66013;DHT22;52783;50.502;8.190;2022-10-29T13:24:42;20.70;91.50
66013;DHT22;52783;50.502;8.190;2022-10-29T13:29:45;20.50;93.50
66013;DHT22;52783;50.502;8.190;2022-10-29T13:32:37;20.10;93.90
66013;DHT22;52783;50.502;8.190;2022-10-29T13:35:50;19.90;95.00
66013;DHT22;52783;50.502;8.190;2022-10-29T13:38:08;19.70;95.30
66013;DHT22;52783;50.502;8.190;2022-10-29T13:45:33;19.30;96.30
66013;DHT22;52783;50.502;8.190;2022-10-29T13:48:06;19.30;96.40
66013;DHT22;52783;50.502;8.190;2022-10-29T13:50:36;19.20;96.90
66013;DHT22;52783;50.502;8.190;2022-10-29T13:53:05;19.10;97.10
66013;DHT22;52783;50.502;8.190;2022-10-29T13:55:33;19.20;97.30
66013;DHT22;52783;50.502;8.190;2022-10-29T13:58:11;19.20;96.50
66013;DHT22;52783;50.502;8.190;2022-10-29T14:00:37;19.30;96.40
66013;DHT22;52783;50.502;8.190;2022-10-29T14:03:14;19.20;96.80
66013;DHT22;52783;50.502;8.190;2022-10-29T14:05:49;19.30;97.10
66013;DHT22;52783;50.502;8.190;2022-10-29T14:08:48;19.40;96.90
66013;DHT22;52783;50.502;8.190;2022-10-29T14:11:27;19.50;96.30
66013;DHT22;52783;50.502;8.190;2022-10-29T14:13:58;19.60;95.90
66013;DHT22;52783;50.502;8.190;2022-10-29T14:16:28;19.70;95.60
66013;DHT22;52783;50.502;8.190;2022-10-29T14:18:55;19.70;95.80
66013;DHT22;52783;50.502;8.190;2022-10-29T14:21:29;19.70;96.40
66013;DHT22;52783;50.502;8.190;2022-10-29T14:24:00;19.60;95.50
66013;DHT22;52783;50.502;8.190;2022-10-29T14:26:27;19.60;95.80
66013;DHT22;52783;50.502;8.190;2022-10-29T14:28:53;19.40;95.50
66013;DHT22;52783;50.502;8.190;2022-10-29T14:31:21;19.30;95.70
66013;DHT22;52783;50.502;8.190;2022-10-29T14:33:59;19.20;95.70
66013;DHT22;52783;50.502;8.190;2022-10-29T14:36:34;19.00;96.70
66013;DHT22;52783;50.502;8.190;2022-10-29T14:39:10;18.80;97.10
66013;DHT22;52783;50.502;8.190;2022-10-29T14:41:39;18.70;97.50
66013;DHT22;52783;50.502;8.190;2022-10-29T14:44:30;18.60;98.00
66013;DHT22;52783;50.502;8.190;2022-10-29T14:47:03;18.50;98.50
66013;DHT22;52783;50.502;8.190;2022-10-29T14:49:32;18.60;98.90
66013;DHT22;52783;50.502;8.190;2022-10-29T14:52:02;18.60;98.50
66013;DHT22;52783;50.502;8.190;2022-10-29T14:54:31;18.70;98.40
66013;DHT22;52783;50.502;8.190;2022-10-29T14:57:02;18.70;97.20
66013;DHT22;52783;50.502;8.190;2022-10-29T14:59:29;18.50;97.40
66013;DHT22;52783;50.502;8.190;2022-10-29T15:01:58;18.40;97.60
66013;DHT22;52783;50.502;8.190;2022-10-29T15:04:27;18.30;97.10
66013;DHT22;52783;50.502;8.190;2022-10-29T15:07:12;18.30;97.70
66013;DHT22;52783;50.502;8.190;2022-10-29T15:09:40;18.10;97.90
66013;DHT22;52783;50.502;8.190;2022-10-29T15:14:52;18.10;98.80
66013;DHT22;52783;50.502;8.190;2022-10-29T15:17:29;18.10;98.70
66013;DHT22;52783;50.502;8.190;2022-10-29T15:19:58;18.20;98.80
66013;DHT22;52783;50.502;8.190;2022-10-29T15:22:30;18.10;98.60
66013;DHT22;52783;50.502;8.190;2022-10-29T15:24:58;18.10;98.90
66013;DHT22;52783;50.502;8.190;2022-10-29T15:27:24;18.00;99.10
66013;DHT22;52783;50.502;8.190;2022-10-29T15:29:53;18.00;99.50
66013;DHT22;52783;50.502;8.190;2022-10-29T15:32:19;17.90;99.70
66013;DHT22;52783;50.502;8.190;2022-10-29T15:34:50;17.80;99.90
66013;DHT22;52783;50.502;8.190;2022-10-29T15:40:19;17.70;99.90
66013;DHT22;52783;50.502;8.190;2022-10-29T15:42:45;17.70;99.90
66013;DHT22;52783;50.502;8.190;2022-10-29T15:45:20;17.70;99.90
66013;DHT22;52783;50.502;8.190;2022-10-29T15:50:17;17.50;99.90
66013;DHT22;52783;50.502;8.190;2022-10-29T15:52:58;17.50;99.90
66013;DHT22;52783;50.502;8.190;2022-10-29T15:55:31;17.50;99.90
66013;DHT22;52783;50.502;8.190;2022-10-29T15:58:11;17.50;99.90
66013;DHT22;52783;50.502;8.190;2022-10-29T16:00:38;17.40;99.90
66013;DHT22;52783;50.502;8.190;2022-10-29T16:05:43;17.30;99.90
66013;DHT22;52783;50.502;8.190;2022-10-29T16:10:43;17.20;99.90
66013;DHT22;52783;50.502;8.190;2022-10-29T16:13:10;17.20;99.90
66013;DHT22;52783;50.502;8.190;2022-10-29T16:15:36;17.10;99.90
66013;DHT22;52783;50.502;8.190;2022-10-29T16:18:01;17.20;99.90
66013;DHT22;52783;50.502;8.190;2022-10-29T16:20:27;17.10;99.90
66013;DHT22;52783;50.502;8.190;2022-10-29T16:22:53;17.00;99.90
66013;DHT22;52783;50.502;8.190;2022-10-29T16:25:24;16.90;99.90
66013;DHT22;52783;50.502;8.190;2022-10-29T16:27:50;16.80;99.90
66013;DHT22;52783;50.502;8.190;2022-10-29T16:30:16;16.70;99.90
66013;DHT22;52783;50.502;8.190;2022-10-29T16:32:42;16.60;99.90
66013;DHT22;52783;50.502;8.190;2022-10-29T16:35:17;16.60;99.90
66013;DHT22;52783;50.502;8.190;2022-10-29T16:37:43;16.50;99.90
66013;DHT22;52783;50.502;8.190;2022-10-29T16:40:09;16.50;99.90
66013;DHT22;52783;50.502;8.190;2022-10-29T16:42:35;16.50;99.90
66013;DHT22;52783;50.502;8.190;2022-10-29T16:45:03;16.50;99.90
66013;DHT22;52783;50.502;8.190;2022-10-29T16:47:28;16.40;99.90
66013;DHT22;52783;50.502;8.190;2022-10-29T16:49:54;16.40;99.90
66013;DHT22;52783;50.502;8.190;2022-10-29T16:52:20;16.30;99.90
66013;DHT22;52783;50.502;8.190;2022-10-29T16:54:45;16.30;99.90
66013;DHT22;52783;50.502;8.190;2022-10-29T16:57:11;16.30;99.90
66013;DHT22;52783;50.502;8.190;2022-10-29T16:59:37;16.30;99.90
66013;DHT22;52783;50.502;8.190;2022-10-29T17:02:02;16.30;99.90
66013;DHT22;52783;50.502;8.190;2022-10-29T17:04:28;16.30;99.90
66013;DHT22;52783;50.502;8.190;2022-10-29T17:06:56;16.30;99.90
66013;DHT22;52783;50.502;8.190;2022-10-29T17:09:22;16.30;99.90
66013;DHT22;52783;50.502;8.190;2022-10-29T17:11:47;16.20;99.90
66013;DHT22;52783;50.502;8.190;2022-10-29T17:14:13;16.20;99.90
66013;DHT22;52783;50.502;8.190;2022-10-29T17:16:39;16.20;99.90
66013;DHT22;52783;50.502;8.190;2022-10-29T17:19:04;16.20;99.90
66013;DHT22;52783;50.502;8.190;2022-10-29T17:21:30;16.20;99.90
66013;DHT22;52783;50.502;8.190;2022-10-29T17:23:56;16.20;99.90
66013;DHT22;52783;50.502;8.190;2022-10-29T17:26:21;16.20;99.90
66013;DHT22;52783;50.502;8.190;2022-10-29T17:28:47;16.20;99.90
66013;DHT22;52783;50.502;8.190;2022-10-29T17:31:12;16.20;99.90
66013;DHT22;52783;50.502;8.190;2022-10-29T17:33:39;16.20;99.90
66013;DHT22;52783;50.502;8.190;2022-10-29T17:36:07;16.20;99.90
66013;DHT22;52783;50.502;8.190;2022-10-29T17:38:34;16.10;99.90
66013;DHT22;52783;50.502;8.190;2022-10-29T17:41:00;16.10;99.90
66013;DHT22;52783;50.502;8.190;2022-10-29T17:43:25;16.00;99.90
66013;DHT22;52783;50.502;8.190;2022-10-29T17:45:51;16.00;99.90
66013;DHT22;52783;50.502;8.190;2022-10-29T17:48:17;16.00;99.90
66013;DHT22;52783;50.502;8.190;2022-10-29T17:50:57;16.00;99.90
66013;DHT22;52783;50.502;8.190;2022-10-29T17:53:24;16.00;99.90